sensor_id;sensor_type;location;lat;lon;timestamp;pressure;altitude;pressure_sealevel;temperature;humidity
71956;BME280;59829;50.562;6.258;2023-04-08T00:28:43;96200.56;;;6.64;100.00
71956;BME280;59829;50.562;6.258;2023-04-08T00:58:44;96194.72;;;6.76;100.00
71956;BME280;59829;50.562;6.258;2023-04-08T01:28:44;96194.34;;;6.54;100.00
71956;BME280;59829;50.562;6.258;2023-04-08T01:58:49;96205.38;;;6.39;100.00
71956;BME280;59829;50.562;6.258;2023-04-08T02:28:51;96218.66;;;6.29;100.00
71956;BME280;59829;50.562;6.258;2023-04-08T02:58:53;96212.66;;;6.30;100.00
71956;BME280;59829;50.562;6.258;2023-04-08T03:28:54;96225.94;;;6.35;100.00
71956;BME280;59829;50.562;6.258;2023-04-08T03:58:54;96232.56;;;6.38;100.00
71956;BME280;59829;50.562;6.258;2023-04-08T04:28:55;96239.25;;;6.25;100.00
71956;BME280;59829;50.562;6.258;2023-04-08T04:58:55;96261.81;;;6.31;100.00
71956;BME280;59829;50.562;6.258;2023-04-08T05:28:56;96278.28;;;6.40;100.00
71956;BME280;59829;50.562;6.258;2023-04-08T05:58:56;96300.59;;;6.50;100.00
71956;BME280;59829;50.562;6.258;2023-04-08T06:28:57;96316.34;;;6.57;100.00
71956;BME280;59829;50.562;6.258;2023-04-08T06:58:57;96337.81;;;6.83;100.00
71956;BME280;59829;50.562;6.258;2023-04-08T07:28:58;96369.09;;;7.15;100.00
71956;BME280;59829;50.562;6.258;2023-04-08T07:58:58;96380.72;;;7.49;100.00
71956;BME280;59829;50.562;6.258;2023-04-08T08:28:59;96403.50;;;7.66;100.00
71956;BME280;59829;50.562;6.258;2023-04-08T08:59:00;96424.16;;;8.33;100.00
71956;BME280;59829;50.562;6.258;2023-04-08T09:29:02;96431.31;;;8.96;100.00
71956;BME280;59829;50.562;6.258;2023-04-08T09:59:08;96442.50;;;9.07;100.00
71956;BME280;59829;50.562;6.258;2023-04-08T10:59:26;96434.97;;;9.84;100.00
71956;BME280;59829;50.562;6.258;2023-04-08T11:29:27;96437.22;;;10.14;100.00
71956;BME280;59829;50.562;6.258;2023-04-08T11:59:29;96451.13;;;10.35;94.96
71956;BME280;59829;50.562;6.258;2023-04-08T12:29:30;96440.28;;;10.44;88.99
71956;BME280;59829;50.562;6.258;2023-04-08T12:59:30;96441.78;;;10.60;84.11
71956;BME280;59829;50.562;6.258;2023-04-08T13:29:32;96435.09;;;10.94;80.08
71956;BME280;59829;50.562;6.258;2023-04-08T13:59:33;96412.63;;;10.97;77.83
71956;BME280;59829;50.562;6.258;2023-04-08T14:29:33;96415.56;;;10.80;75.88
71956;BME280;59829;50.562;6.258;2023-04-08T14:59:34;96420.91;;;10.77;73.54
71956;BME280;59829;50.562;6.258;2023-04-08T15:29:35;96432.22;;;10.25;70.74
71956;BME280;59829;50.562;6.258;2023-04-08T15:59:35;96431.47;;;10.36;68.89
71956;BME280;59829;50.562;6.258;2023-04-08T16:29:36;96441.91;;;10.20;67.42
71956;BME280;59829;50.562;6.258;2023-04-08T16:59:37;96435.56;;;9.87;66.97
71956;BME280;59829;50.562;6.258;2023-04-08T17:29:37;96443.56;;;9.57;68.97
71956;BME280;59829;50.562;6.258;2023-04-08T17:59:37;96459.44;;;9.35;71.86
71956;BME280;59829;50.562;6.258;2023-04-08T18:29:38;96479.63;;;9.13;74.10
71956;BME280;59829;50.562;6.258;2023-04-08T18:59:38;96505.44;;;8.82;76.22
71956;BME280;59829;50.562;6.258;2023-04-08T19:29:39;96501.13;;;8.41;78.29
71956;BME280;59829;50.562;6.258;2023-04-08T19:59:39;96515.34;;;7.42;80.01
71956;BME280;59829;50.562;6.258;2023-04-08T20:29:39;96537.41;;;6.80;82.43
71956;BME280;59829;50.562;6.258;2023-04-08T20:59:42;96540.66;;;6.51;85.44
71956;BME280;59829;50.562;6.258;2023-04-08T21:29:42;96529.16;;;6.59;88.55
71956;BME280;59829;50.562;6.258;2023-04-08T21:59:42;96512.13;;;6.77;91.62
71956;BME280;59829;50.562;6.258;2023-04-08T22:29:43;96524.53;;;6.99;94.57
71956;BME280;59829;50.562;6.258;2023-04-08T22:59:43;96513.41;;;7.16;97.26
71956;BME280;59829;50.562;6.258;2023-04-08T23:29:43;96503.69;;;7.22;100.00
71956;BME280;59829;50.562;6.258;2023-04-08T23:59:44;96509.72;;;7.06;100.00
